sensor_id;sensor_type;location;lat;lon;timestamp;temperature;humidity
59572;DHT22;59406;45.602;11.904;2022-08-01T00:01:02;24.20;69.40
59572;DHT22;59406;45.602;11.904;2022-08-01T00:03:28;24.20;70.30
59572;DHT22;59406;45.602;11.904;2022-08-01T00:05:54;24.10;70.30
59572;DHT22;59406;45.602;11.904;2022-08-01T00:08:20;24.20;70.10
59572;DHT22;59406;45.602;11.904;2022-08-01T00:10:46;24.10;69.70
59572;DHT22;59406;45.602;11.904;2022-08-01T00:13:12;24.00;70.10
59572;DHT22;59406;45.602;11.904;2022-08-01T00:15:37;24.10;70.50
59572;DHT22;59406;45.602;11.904;2022-08-01T00:18:04;24.00;70.70
59572;DHT22;59406;45.602;11.904;2022-08-01T00:20:30;23.90;70.70
59572;DHT22;59406;45.602;11.904;2022-08-01T00:22:55;23.90;70.50
59572;DHT22;59406;45.602;11.904;2022-08-01T00:25:21;23.90;70.70
59572;DHT22;59406;45.602;11.904;2022-08-01T00:27:47;23.90;70.80
59572;DHT22;59406;45.602;11.904;2022-08-01T00:30:13;23.90;70.90
59572;DHT22;59406;45.602;11.904;2022-08-01T00:32:39;23.80;70.90
59572;DHT22;59406;45.602;11.904;2022-08-01T00:35:06;23.80;71.10
59572;DHT22;59406;45.602;11.904;2022-08-01T00:37:32;23.70;71.00
59572;DHT22;59406;45.602;11.904;2022-08-01T00:39:58;23.80;71.10
59572;DHT22;59406;45.602;11.904;2022-08-01T00:42:24;23.80;71.10
59572;DHT22;59406;45.602;11.904;2022-08-01T00:44:50;23.70;71.20
59572;DHT22;59406;45.602;11.904;2022-08-01T00:47:16;23.80;71.40
59572;DHT22;59406;45.602;11.904;2022-08-01T00:49:42;23.60;71.60
59572;DHT22;59406;45.602;11.904;2022-08-01T00:52:08;23.60;71.30
59572;DHT22;59406;45.602;11.904;2022-08-01T00:54:35;23.50;71.70
59572;DHT22;59406;45.602;11.904;2022-08-01T00:57:02;23.50;72.30
59572;DHT22;59406;45.602;11.904;2022-08-01T00:59:29;23.40;72.10
59572;DHT22;59406;45.602;11.904;2022-08-01T01:01:55;23.40;72.00
59572;DHT22;59406;45.602;11.904;2022-08-01T01:04:21;23.40;71.60
59572;DHT22;59406;45.602;11.904;2022-08-01T01:09:50;23.40;72.90
59572;DHT22;59406;45.602;11.904;2022-08-01T01:12:59;23.40;71.80
59572;DHT22;59406;45.602;11.904;2022-08-01T01:15:33;23.40;72.00
59572;DHT22;59406;45.602;11.904;2022-08-01T01:20:43;23.40;72.80
59572;DHT22;59406;45.602;11.904;2022-08-01T01:23:26;23.30;72.40
59572;DHT22;59406;45.602;11.904;2022-08-01T01:31:20;23.30;72.40
59572;DHT22;59406;45.602;11.904;2022-08-01T01:33:49;23.30;72.40
59572;DHT22;59406;45.602;11.904;2022-08-01T01:36:18;23.30;72.40
59572;DHT22;59406;45.602;11.904;2022-08-01T01:38:46;23.30;72.40
59572;DHT22;59406;45.602;11.904;2022-08-01T01:41:15;23.20;72.20
59572;DHT22;59406;45.602;11.904;2022-08-01T01:43:42;23.30;72.30
59572;DHT22;59406;45.602;11.904;2022-08-01T01:46:10;23.20;72.70
59572;DHT22;59406;45.602;11.904;2022-08-01T01:48:38;23.20;72.70
59572;DHT22;59406;45.602;11.904;2022-08-01T01:51:06;23.30;72.80
59572;DHT22;59406;45.602;11.904;2022-08-01T01:53:34;23.20;73.10
59572;DHT22;59406;45.602;11.904;2022-08-01T01:56:02;23.30;72.90
59572;DHT22;59406;45.602;11.904;2022-08-01T01:58:31;23.20;73.30
59572;DHT22;59406;45.602;11.904;2022-08-01T02:00:59;23.10;73.50
59572;DHT22;59406;45.602;11.904;2022-08-01T02:03:28;23.10;73.60
59572;DHT22;59406;45.602;11.904;2022-08-01T02:05:55;23.10;73.90
59572;DHT22;59406;45.602;11.904;2022-08-01T02:08:24;23.10;73.70
59572;DHT22;59406;45.602;11.904;2022-08-01T02:10:52;23.10;73.60
59572;DHT22;59406;45.602;11.904;2022-08-01T02:13:38;23.10;73.60
59572;DHT22;59406;45.602;11.904;2022-08-01T02:16:06;23.00;73.80
59572;DHT22;59406;45.602;11.904;2022-08-01T02:18:33;23.00;74.00
59572;DHT22;59406;45.602;11.904;2022-08-01T02:21:00;23.00;73.70
59572;DHT22;59406;45.602;11.904;2022-08-01T02:23:32;22.90;73.60
59572;DHT22;59406;45.602;11.904;2022-08-01T02:26:01;23.00;73.60
59572;DHT22;59406;45.602;11.904;2022-08-01T02:28:36;22.90;73.50
59572;DHT22;59406;45.602;11.904;2022-08-01T02:31:09;22.90;73.20
59572;DHT22;59406;45.602;11.904;2022-08-01T02:33:40;22.80;72.90
59572;DHT22;59406;45.602;11.904;2022-08-01T02:36:07;22.80;73.20
59572;DHT22;59406;45.602;11.904;2022-08-01T02:38:39;22.70;73.60
59572;DHT22;59406;45.602;11.904;2022-08-01T02:41:11;22.80;73.70
59572;DHT22;59406;45.602;11.904;2022-08-01T02:43:42;22.70;73.60
59572;DHT22;59406;45.602;11.904;2022-08-01T02:46:13;22.60;73.60
59572;DHT22;59406;45.602;11.904;2022-08-01T02:48:42;22.60;73.70
59572;DHT22;59406;45.602;11.904;2022-08-01T02:51:10;22.40;73.90
59572;DHT22;59406;45.602;11.904;2022-08-01T02:53:39;22.40;74.00
59572;DHT22;59406;45.602;11.904;2022-08-01T02:56:08;22.30;74.10
59572;DHT22;59406;45.602;11.904;2022-08-01T02:58:35;22.30;74.20
59572;DHT22;59406;45.602;11.904;2022-08-01T03:01:04;22.20;74.30
59572;DHT22;59406;45.602;11.904;2022-08-01T03:03:32;22.30;74.00
59572;DHT22;59406;45.602;11.904;2022-08-01T03:05:59;22.30;74.20
59572;DHT22;59406;45.602;11.904;2022-08-01T03:08:28;22.20;74.20
59572;DHT22;59406;45.602;11.904;2022-08-01T03:10:56;22.30;74.20
59572;DHT22;59406;45.602;11.904;2022-08-01T03:13:26;22.30;74.10
59572;DHT22;59406;45.602;11.904;2022-08-01T03:15:53;22.20;74.30
59572;DHT22;59406;45.602;11.904;2022-08-01T03:18:21;22.20;74.10
59572;DHT22;59406;45.602;11.904;2022-08-01T03:20:49;22.10;74.30
59572;DHT22;59406;45.602;11.904;2022-08-01T03:23:17;22.20;74.10
59572;DHT22;59406;45.602;11.904;2022-08-01T03:25:45;22.20;73.90
59572;DHT22;59406;45.602;11.904;2022-08-01T03:28:13;22.20;73.90
59572;DHT22;59406;45.602;11.904;2022-08-01T03:30:42;22.10;74.00
59572;DHT22;59406;45.602;11.904;2022-08-01T03:33:09;22.00;74.00
59572;DHT22;59406;45.602;11.904;2022-08-01T03:35:51;22.10;74.00
59572;DHT22;59406;45.602;11.904;2022-08-01T03:38:22;22.10;74.70
59572;DHT22;59406;45.602;11.904;2022-08-01T03:40:53;22.00;74.00
59572;DHT22;59406;45.602;11.904;2022-08-01T03:43:40;22.00;73.90
59572;DHT22;59406;45.602;11.904;2022-08-01T03:46:19;22.00;74.20
59572;DHT22;59406;45.602;11.904;2022-08-01T03:48:48;22.00;74.30
59572;DHT22;59406;45.602;11.904;2022-08-01T03:51:15;22.00;73.90
59572;DHT22;59406;45.602;11.904;2022-08-01T03:53:45;22.00;74.00
59572;DHT22;59406;45.602;11.904;2022-08-01T03:56:16;22.00;74.00
59572;DHT22;59406;45.602;11.904;2022-08-01T03:58:45;22.00;74.10
59572;DHT22;59406;45.602;11.904;2022-08-01T04:01:13;22.00;74.10
59572;DHT22;59406;45.602;11.904;2022-08-01T04:03:40;22.00;74.30
59572;DHT22;59406;45.602;11.904;2022-08-01T04:06:07;22.00;74.20
59572;DHT22;59406;45.602;11.904;2022-08-01T04:08:37;22.00;73.90
59572;DHT22;59406;45.602;11.904;2022-08-01T04:11:03;21.90;73.50
59572;DHT22;59406;45.602;11.904;2022-08-01T04:13:31;22.00;73.70
59572;DHT22;59406;45.602;11.904;2022-08-01T04:15:58;21.90;73.70
59572;DHT22;59406;45.602;11.904;2022-08-01T04:18:24;21.90;73.90
59572;DHT22;59406;45.602;11.904;2022-08-01T04:20:50;21.90;73.70
59572;DHT22;59406;45.602;11.904;2022-08-01T04:23:20;22.00;73.70
59572;DHT22;59406;45.602;11.904;2022-08-01T04:25:48;22.00;73.60
59572;DHT22;59406;45.602;11.904;2022-08-01T04:28:16;22.10;73.40
59572;DHT22;59406;45.602;11.904;2022-08-01T04:30:44;22.20;73.30
59572;DHT22;59406;45.602;11.904;2022-08-01T04:33:14;22.20;73.40
59572;DHT22;59406;45.602;11.904;2022-08-01T04:35:45;22.20;73.20
59572;DHT22;59406;45.602;11.904;2022-08-01T04:38:15;22.30;73.50
59572;DHT22;59406;45.602;11.904;2022-08-01T04:40:44;22.30;73.40
59572;DHT22;59406;45.602;11.904;2022-08-01T04:43:11;22.50;73.20
59572;DHT22;59406;45.602;11.904;2022-08-01T04:45:38;22.60;73.20
59572;DHT22;59406;45.602;11.904;2022-08-01T04:48:05;22.60;73.00
59572;DHT22;59406;45.602;11.904;2022-08-01T04:50:32;22.70;72.70
59572;DHT22;59406;45.602;11.904;2022-08-01T04:53:00;22.90;72.50
59572;DHT22;59406;45.602;11.904;2022-08-01T04:55:29;23.00;73.00
59572;DHT22;59406;45.602;11.904;2022-08-01T04:57:56;23.00;72.70
59572;DHT22;59406;45.602;11.904;2022-08-01T05:00:22;23.20;72.20
59572;DHT22;59406;45.602;11.904;2022-08-01T05:02:48;23.30;72.00
59572;DHT22;59406;45.602;11.904;2022-08-01T05:05:14;23.50;71.50
59572;DHT22;59406;45.602;11.904;2022-08-01T05:07:40;23.60;71.20
59572;DHT22;59406;45.602;11.904;2022-08-01T05:10:06;23.80;71.90
59572;DHT22;59406;45.602;11.904;2022-08-01T05:12:32;23.80;71.80
59572;DHT22;59406;45.602;11.904;2022-08-01T05:14:59;24.10;71.40
59572;DHT22;59406;45.602;11.904;2022-08-01T05:17:25;24.10;71.00
59572;DHT22;59406;45.602;11.904;2022-08-01T05:19:52;24.30;70.70
59572;DHT22;59406;45.602;11.904;2022-08-01T05:22:18;24.40;70.60
59572;DHT22;59406;45.602;11.904;2022-08-01T05:24:43;24.50;70.50
59572;DHT22;59406;45.602;11.904;2022-08-01T05:27:10;24.70;70.40
59572;DHT22;59406;45.602;11.904;2022-08-01T05:29:36;24.90;70.00
59572;DHT22;59406;45.602;11.904;2022-08-01T05:32:02;24.90;69.70
59572;DHT22;59406;45.602;11.904;2022-08-01T05:34:29;25.10;69.60
59572;DHT22;59406;45.602;11.904;2022-08-01T05:36:55;25.30;69.10
59572;DHT22;59406;45.602;11.904;2022-08-01T05:39:21;25.40;69.00
59572;DHT22;59406;45.602;11.904;2022-08-01T05:41:47;25.50;69.00
59572;DHT22;59406;45.602;11.904;2022-08-01T05:44:13;25.60;68.90
59572;DHT22;59406;45.602;11.904;2022-08-01T05:46:38;25.80;68.80
59572;DHT22;59406;45.602;11.904;2022-08-01T05:49:05;25.90;68.70
59572;DHT22;59406;45.602;11.904;2022-08-01T05:51:31;26.00;68.60
59572;DHT22;59406;45.602;11.904;2022-08-01T05:53:58;26.20;68.60
59572;DHT22;59406;45.602;11.904;2022-08-01T05:56:25;26.30;68.40
59572;DHT22;59406;45.602;11.904;2022-08-01T05:58:52;26.40;68.00
59572;DHT22;59406;45.602;11.904;2022-08-01T06:01:18;26.70;68.00
59572;DHT22;59406;45.602;11.904;2022-08-01T06:03:45;26.80;67.50
59572;DHT22;59406;45.602;11.904;2022-08-01T06:06:11;27.00;67.00
59572;DHT22;59406;45.602;11.904;2022-08-01T06:08:37;27.30;66.50
59572;DHT22;59406;45.602;11.904;2022-08-01T06:11:03;27.50;66.40
59572;DHT22;59406;45.602;11.904;2022-08-01T06:13:29;27.70;65.80
59572;DHT22;59406;45.602;11.904;2022-08-01T06:15:55;27.80;65.90
59572;DHT22;59406;45.602;11.904;2022-08-01T06:18:21;28.00;65.40
59572;DHT22;59406;45.602;11.904;2022-08-01T06:20:47;28.20;64.70
59572;DHT22;59406;45.602;11.904;2022-08-01T06:23:14;28.50;63.50
59572;DHT22;59406;45.602;11.904;2022-08-01T06:25:42;28.60;62.50
59572;DHT22;59406;45.602;11.904;2022-08-01T06:28:09;28.90;62.30
59572;DHT22;59406;45.602;11.904;2022-08-01T06:30:35;29.00;62.40
59572;DHT22;59406;45.602;11.904;2022-08-01T06:33:01;29.20;60.70
59572;DHT22;59406;45.602;11.904;2022-08-01T06:35:28;29.40;59.90
59572;DHT22;59406;45.602;11.904;2022-08-01T06:37:58;29.50;60.30
59572;DHT22;59406;45.602;11.904;2022-08-01T06:40:24;29.50;62.20
59572;DHT22;59406;45.602;11.904;2022-08-01T06:42:50;29.60;60.90
59572;DHT22;59406;45.602;11.904;2022-08-01T06:45:17;30.10;60.10
59572;DHT22;59406;45.602;11.904;2022-08-01T06:47:44;30.30;60.70
59572;DHT22;59406;45.602;11.904;2022-08-01T06:50:11;30.30;60.00
59572;DHT22;59406;45.602;11.904;2022-08-01T06:52:40;30.70;59.70
59572;DHT22;59406;45.602;11.904;2022-08-01T06:55:06;31.00;58.60
59572;DHT22;59406;45.602;11.904;2022-08-01T06:57:33;30.80;59.00
59572;DHT22;59406;45.602;11.904;2022-08-01T07:00:04;30.60;59.60
59572;DHT22;59406;45.602;11.904;2022-08-01T07:02:34;30.60;60.20
59572;DHT22;59406;45.602;11.904;2022-08-01T07:05:02;31.10;59.40
59572;DHT22;59406;45.602;11.904;2022-08-01T07:07:30;31.40;59.00
59572;DHT22;59406;45.602;11.904;2022-08-01T07:09:57;31.50;58.50
59572;DHT22;59406;45.602;11.904;2022-08-01T07:12:23;32.00;56.40
59572;DHT22;59406;45.602;11.904;2022-08-01T07:14:49;32.30;55.60
59572;DHT22;59406;45.602;11.904;2022-08-01T07:17:15;32.70;55.00
59572;DHT22;59406;45.602;11.904;2022-08-01T07:19:41;32.50;55.00
59572;DHT22;59406;45.602;11.904;2022-08-01T07:22:07;32.80;55.30
59572;DHT22;59406;45.602;11.904;2022-08-01T07:24:33;33.00;54.50
59572;DHT22;59406;45.602;11.904;2022-08-01T07:26:59;33.20;54.10
59572;DHT22;59406;45.602;11.904;2022-08-01T07:29:25;33.60;53.70
59572;DHT22;59406;45.602;11.904;2022-08-01T07:31:55;33.80;52.60
59572;DHT22;59406;45.602;11.904;2022-08-01T07:34:22;34.20;50.70
59572;DHT22;59406;45.602;11.904;2022-08-01T07:36:48;34.40;51.10
59572;DHT22;59406;45.602;11.904;2022-08-01T07:39:14;34.60;49.00
59572;DHT22;59406;45.602;11.904;2022-08-01T07:41:40;34.70;48.90
59572;DHT22;59406;45.602;11.904;2022-08-01T07:44:06;34.50;50.00
59572;DHT22;59406;45.602;11.904;2022-08-01T07:46:32;34.50;49.70
59572;DHT22;59406;45.602;11.904;2022-08-01T07:48:58;34.90;47.40
59572;DHT22;59406;45.602;11.904;2022-08-01T07:51:24;34.90;47.20
59572;DHT22;59406;45.602;11.904;2022-08-01T07:53:50;35.00;47.50
59572;DHT22;59406;45.602;11.904;2022-08-01T07:56:16;34.60;47.60
59572;DHT22;59406;45.602;11.904;2022-08-01T07:58:42;34.80;47.80
59572;DHT22;59406;45.602;11.904;2022-08-01T08:01:08;35.20;46.70
59572;DHT22;59406;45.602;11.904;2022-08-01T08:03:33;34.80;46.30
59572;DHT22;59406;45.602;11.904;2022-08-01T08:05:59;34.90;46.80
59572;DHT22;59406;45.602;11.904;2022-08-01T08:08:25;35.20;46.50
59572;DHT22;59406;45.602;11.904;2022-08-01T08:10:51;35.70;45.50
59572;DHT22;59406;45.602;11.904;2022-08-01T08:13:17;35.90;44.90
59572;DHT22;59406;45.602;11.904;2022-08-01T08:15:43;36.20;44.50
59572;DHT22;59406;45.602;11.904;2022-08-01T08:18:08;36.80;42.90
59572;DHT22;59406;45.602;11.904;2022-08-01T08:20:34;36.50;43.70
59572;DHT22;59406;45.602;11.904;2022-08-01T08:23:00;36.20;43.30
59572;DHT22;59406;45.602;11.904;2022-08-01T08:25:26;36.00;43.40
59572;DHT22;59406;45.602;11.904;2022-08-01T08:27:54;36.10;43.20
59572;DHT22;59406;45.602;11.904;2022-08-01T08:30:20;36.20;41.60
59572;DHT22;59406;45.602;11.904;2022-08-01T08:32:46;36.70;42.00
59572;DHT22;59406;45.602;11.904;2022-08-01T08:35:13;37.10;40.90
59572;DHT22;59406;45.602;11.904;2022-08-01T08:37:38;37.70;39.60
59572;DHT22;59406;45.602;11.904;2022-08-01T08:40:05;37.40;37.60
59572;DHT22;59406;45.602;11.904;2022-08-01T08:42:31;37.50;39.00
59572;DHT22;59406;45.602;11.904;2022-08-01T08:44:58;37.70;37.80
59572;DHT22;59406;45.602;11.904;2022-08-01T08:47:25;37.60;37.90
59572;DHT22;59406;45.602;11.904;2022-08-01T08:49:56;38.20;36.70
59572;DHT22;59406;45.602;11.904;2022-08-01T08:52:24;38.20;35.90
59572;DHT22;59406;45.602;11.904;2022-08-01T08:54:51;38.30;36.40
59572;DHT22;59406;45.602;11.904;2022-08-01T08:57:20;38.40;35.90
59572;DHT22;59406;45.602;11.904;2022-08-01T08:59:46;39.00;34.60
59572;DHT22;59406;45.602;11.904;2022-08-01T09:02:13;39.00;34.30
59572;DHT22;59406;45.602;11.904;2022-08-01T09:04:39;39.50;33.20
59572;DHT22;59406;45.602;11.904;2022-08-01T09:07:06;39.50;31.00
59572;DHT22;59406;45.602;11.904;2022-08-01T09:09:32;39.60;30.70
59572;DHT22;59406;45.602;11.904;2022-08-01T09:11:58;39.30;29.00
59572;DHT22;59406;45.602;11.904;2022-08-01T09:14:26;39.60;28.60
59572;DHT22;59406;45.602;11.904;2022-08-01T09:17:04;40.00;27.80
59572;DHT22;59406;45.602;11.904;2022-08-01T09:19:36;40.90;27.40
59572;DHT22;59406;45.602;11.904;2022-08-01T09:22:06;41.10;27.20
59572;DHT22;59406;45.602;11.904;2022-08-01T09:24:34;42.10;27.50
59572;DHT22;59406;45.602;11.904;2022-08-01T09:27:14;0.20;0.20
59572;DHT22;59406;45.602;11.904;2022-08-01T09:29:41;42.10;26.30
59572;DHT22;59406;45.602;11.904;2022-08-01T09:32:10;42.30;26.60
59572;DHT22;59406;45.602;11.904;2022-08-01T09:34:36;0.20;0.20
59572;DHT22;59406;45.602;11.904;2022-08-01T09:37:03;0.20;0.20
59572;DHT22;59406;45.602;11.904;2022-08-01T09:39:38;0.20;0.20
59572;DHT22;59406;45.602;11.904;2022-08-01T09:42:23;0.20;0.20
59572;DHT22;59406;45.602;11.904;2022-08-01T09:44:51;0.20;0.20
59572;DHT22;59406;45.602;11.904;2022-08-01T09:47:18;0.20;0.20
59572;DHT22;59406;45.602;11.904;2022-08-01T09:49:54;0.20;0.20
59572;DHT22;59406;45.602;11.904;2022-08-01T09:52:22;0.20;0.20
59572;DHT22;59406;45.602;11.904;2022-08-01T09:57:22;0.20;0.20
59572;DHT22;59406;45.602;11.904;2022-08-01T09:59:52;0.20;0.20
59572;DHT22;59406;45.602;11.904;2022-08-01T10:02:34;0.20;0.20
59572;DHT22;59406;45.602;11.904;2022-08-01T10:05:04;0.20;0.20
59572;DHT22;59406;45.602;11.904;2022-08-01T10:07:30;0.20;0.20
59572;DHT22;59406;45.602;11.904;2022-08-01T10:10:13;0.20;0.20
59572;DHT22;59406;45.602;11.904;2022-08-01T10:12:41;0.20;0.20
59572;DHT22;59406;45.602;11.904;2022-08-01T10:15:08;0.20;0.20
59572;DHT22;59406;45.602;11.904;2022-08-01T10:17:38;0.20;0.20
59572;DHT22;59406;45.602;11.904;2022-08-01T10:20:05;0.20;0.20
59572;DHT22;59406;45.602;11.904;2022-08-01T10:22:33;0.20;0.20
59572;DHT22;59406;45.602;11.904;2022-08-01T10:25:03;0.20;0.20
59572;DHT22;59406;45.602;11.904;2022-08-01T10:27:32;0.20;0.20
59572;DHT22;59406;45.602;11.904;2022-08-01T10:30:00;0.20;0.20
59572;DHT22;59406;45.602;11.904;2022-08-01T10:32:33;0.20;0.20
59572;DHT22;59406;45.602;11.904;2022-08-01T10:35:00;0.20;0.20
59572;DHT22;59406;45.602;11.904;2022-08-01T10:37:27;0.20;0.20
59572;DHT22;59406;45.602;11.904;2022-08-01T10:39:54;0.20;0.20
59572;DHT22;59406;45.602;11.904;2022-08-01T10:42:21;0.20;0.20
59572;DHT22;59406;45.602;11.904;2022-08-01T10:44:48;0.20;0.20
59572;DHT22;59406;45.602;11.904;2022-08-01T10:47:18;0.20;0.20
59572;DHT22;59406;45.602;11.904;2022-08-01T10:49:53;0.20;0.20
59572;DHT22;59406;45.602;11.904;2022-08-01T10:52:22;0.20;0.20
59572;DHT22;59406;45.602;11.904;2022-08-01T10:54:48;0.20;0.20
59572;DHT22;59406;45.602;11.904;2022-08-01T10:57:14;0.20;0.20
59572;DHT22;59406;45.602;11.904;2022-08-01T10:59:51;0.20;0.20
59572;DHT22;59406;45.602;11.904;2022-08-01T11:02:29;0.20;0.20
59572;DHT22;59406;45.602;11.904;2022-08-01T11:05:12;0.20;0.20
59572;DHT22;59406;45.602;11.904;2022-08-01T11:07:48;0.20;0.20
59572;DHT22;59406;45.602;11.904;2022-08-01T11:10:35;0.20;0.20
59572;DHT22;59406;45.602;11.904;2022-08-01T11:13:04;0.20;0.20
59572;DHT22;59406;45.602;11.904;2022-08-01T11:15:33;0.20;0.20
59572;DHT22;59406;45.602;11.904;2022-08-01T11:18:02;0.20;0.20
59572;DHT22;59406;45.602;11.904;2022-08-01T11:20:33;0.20;0.20
59572;DHT22;59406;45.602;11.904;2022-08-01T11:30:40;0.20;0.20
59572;DHT22;59406;45.602;11.904;2022-08-01T11:33:06;0.20;0.20
59572;DHT22;59406;45.602;11.904;2022-08-01T11:35:36;0.20;0.20
59572;DHT22;59406;45.602;11.904;2022-08-01T11:38:22;0.20;0.20
59572;DHT22;59406;45.602;11.904;2022-08-01T11:41:15;0.20;0.20
59572;DHT22;59406;45.602;11.904;2022-08-01T11:46:55;0.20;0.20
59572;DHT22;59406;45.602;11.904;2022-08-01T11:52:08;0.20;0.20
59572;DHT22;59406;45.602;11.904;2022-08-01T11:57:12;0.20;0.20
59572;DHT22;59406;45.602;11.904;2022-08-01T11:59:44;0.20;0.20
59572;DHT22;59406;45.602;11.904;2022-08-01T12:02:24;0.20;0.20
59572;DHT22;59406;45.602;11.904;2022-08-01T12:04:54;0.20;0.20
59572;DHT22;59406;45.602;11.904;2022-08-01T12:07:21;0.20;0.20
59572;DHT22;59406;45.602;11.904;2022-08-01T12:09:55;0.20;0.20
59572;DHT22;59406;45.602;11.904;2022-08-01T12:12:21;0.20;0.20
59572;DHT22;59406;45.602;11.904;2022-08-01T12:14:56;0.20;0.20
59572;DHT22;59406;45.602;11.904;2022-08-01T12:20:01;0.20;0.20
59572;DHT22;59406;45.602;11.904;2022-08-01T12:22:27;0.20;0.20
59572;DHT22;59406;45.602;11.904;2022-08-01T12:24:53;0.20;0.20
59572;DHT22;59406;45.602;11.904;2022-08-01T12:27:30;0.20;0.20
59572;DHT22;59406;45.602;11.904;2022-08-01T12:29:58;0.20;0.20
59572;DHT22;59406;45.602;11.904;2022-08-01T12:32:27;0.20;0.20
59572;DHT22;59406;45.602;11.904;2022-08-01T12:34:55;0.20;0.20
59572;DHT22;59406;45.602;11.904;2022-08-01T12:37:24;0.20;0.20
59572;DHT22;59406;45.602;11.904;2022-08-01T12:39:50;0.20;0.20
59572;DHT22;59406;45.602;11.904;2022-08-01T12:42:16;0.20;0.20
59572;DHT22;59406;45.602;11.904;2022-08-01T12:44:44;0.20;0.20
59572;DHT22;59406;45.602;11.904;2022-08-01T12:47:11;0.20;0.20
59572;DHT22;59406;45.602;11.904;2022-08-01T12:49:38;0.20;0.20
59572;DHT22;59406;45.602;11.904;2022-08-01T12:52:05;0.20;0.20
59572;DHT22;59406;45.602;11.904;2022-08-01T12:55:06;0.20;0.20
59572;DHT22;59406;45.602;11.904;2022-08-01T12:57:35;0.20;0.20
59572;DHT22;59406;45.602;11.904;2022-08-01T13:00:20;0.20;0.20
59572;DHT22;59406;45.602;11.904;2022-08-01T13:02:48;0.20;0.20
59572;DHT22;59406;45.602;11.904;2022-08-01T13:05:16;0.20;0.20
59572;DHT22;59406;45.602;11.904;2022-08-01T13:07:48;0.20;0.20
59572;DHT22;59406;45.602;11.904;2022-08-01T13:10:24;0.20;0.20
59572;DHT22;59406;45.602;11.904;2022-08-01T13:12:52;0.20;0.20
59572;DHT22;59406;45.602;11.904;2022-08-01T13:15:23;0.20;0.20
59572;DHT22;59406;45.602;11.904;2022-08-01T13:17:51;0.20;0.20
59572;DHT22;59406;45.602;11.904;2022-08-01T13:20:34;0.20;0.20
59572;DHT22;59406;45.602;11.904;2022-08-01T13:23:15;0.20;0.20
59572;DHT22;59406;45.602;11.904;2022-08-01T13:25:52;0.20;0.20
59572;DHT22;59406;45.602;11.904;2022-08-01T13:28:28;0.20;0.20
59572;DHT22;59406;45.602;11.904;2022-08-01T13:33:23;0.20;0.20
59572;DHT22;59406;45.602;11.904;2022-08-01T13:35:53;0.20;0.20
59572;DHT22;59406;45.602;11.904;2022-08-01T13:38:20;0.20;0.20
59572;DHT22;59406;45.602;11.904;2022-08-01T13:41:06;0.20;0.20
59572;DHT22;59406;45.602;11.904;2022-08-01T13:43:33;0.20;0.20
59572;DHT22;59406;45.602;11.904;2022-08-01T13:46:00;0.20;0.20
59572;DHT22;59406;45.602;11.904;2022-08-01T13:48:30;0.20;0.20
59572;DHT22;59406;45.602;11.904;2022-08-01T13:50:56;0.20;0.20
59572;DHT22;59406;45.602;11.904;2022-08-01T13:53:22;0.20;0.20
59572;DHT22;59406;45.602;11.904;2022-08-01T13:55:49;0.20;0.20
59572;DHT22;59406;45.602;11.904;2022-08-01T13:58:14;0.20;0.20
59572;DHT22;59406;45.602;11.904;2022-08-01T14:00:40;0.20;0.20
59572;DHT22;59406;45.602;11.904;2022-08-01T14:03:06;0.20;0.20
59572;DHT22;59406;45.602;11.904;2022-08-01T14:05:35;0.20;0.20
59572;DHT22;59406;45.602;11.904;2022-08-01T14:08:02;0.20;0.20
59572;DHT22;59406;45.602;11.904;2022-08-01T14:10:28;0.20;0.20
59572;DHT22;59406;45.602;11.904;2022-08-01T14:12:57;0.20;0.20
59572;DHT22;59406;45.602;11.904;2022-08-01T14:15:24;0.20;0.20
59572;DHT22;59406;45.602;11.904;2022-08-01T14:17:51;0.20;0.20
59572;DHT22;59406;45.602;11.904;2022-08-01T14:20:17;0.20;0.20
59572;DHT22;59406;45.602;11.904;2022-08-01T14:22:47;0.20;0.20
59572;DHT22;59406;45.602;11.904;2022-08-01T14:25:13;0.20;0.20
59572;DHT22;59406;45.602;11.904;2022-08-01T14:27:39;0.20;0.20
59572;DHT22;59406;45.602;11.904;2022-08-01T14:30:10;0.20;0.20
59572;DHT22;59406;45.602;11.904;2022-08-01T14:32:36;0.20;0.20
59572;DHT22;59406;45.602;11.904;2022-08-01T14:35:04;0.20;0.20
59572;DHT22;59406;45.602;11.904;2022-08-01T14:37:32;0.20;0.20
59572;DHT22;59406;45.602;11.904;2022-08-01T14:39:59;0.20;0.20
59572;DHT22;59406;45.602;11.904;2022-08-01T14:42:26;0.20;0.20
59572;DHT22;59406;45.602;11.904;2022-08-01T14:44:52;0.20;0.20
59572;DHT22;59406;45.602;11.904;2022-08-01T14:47:18;42.40;18.80
59572;DHT22;59406;45.602;11.904;2022-08-01T14:49:44;0.20;0.20
59572;DHT22;59406;45.602;11.904;2022-08-01T14:52:10;0.20;0.20
59572;DHT22;59406;45.602;11.904;2022-08-01T14:54:35;0.20;0.20
59572;DHT22;59406;45.602;11.904;2022-08-01T14:57:02;0.20;0.20
59572;DHT22;59406;45.602;11.904;2022-08-01T14:59:28;0.20;0.20
59572;DHT22;59406;45.602;11.904;2022-08-01T15:01:54;0.20;0.20
59572;DHT22;59406;45.602;11.904;2022-08-01T15:04:20;42.00;19.90
59572;DHT22;59406;45.602;11.904;2022-08-01T15:06:46;41.30;19.90
59572;DHT22;59406;45.602;11.904;2022-08-01T15:09:12;40.90;20.80
59572;DHT22;59406;45.602;11.904;2022-08-01T15:11:38;41.10;21.20
59572;DHT22;59406;45.602;11.904;2022-08-01T15:14:04;40.50;21.20
59572;DHT22;59406;45.602;11.904;2022-08-01T15:16:48;41.10;21.10
59572;DHT22;59406;45.602;11.904;2022-08-01T15:19:14;40.40;21.50
59572;DHT22;59406;45.602;11.904;2022-08-01T15:21:40;40.70;21.90
59572;DHT22;59406;45.602;11.904;2022-08-01T15:24:07;40.20;21.10
59572;DHT22;59406;45.602;11.904;2022-08-01T15:26:35;40.80;21.00
59572;DHT22;59406;45.602;11.904;2022-08-01T15:29:01;40.90;20.90
59572;DHT22;59406;45.602;11.904;2022-08-01T15:31:27;40.40;21.20
59572;DHT22;59406;45.602;11.904;2022-08-01T15:33:53;39.50;21.80
59572;DHT22;59406;45.602;11.904;2022-08-01T15:36:20;38.60;22.60
59572;DHT22;59406;45.602;11.904;2022-08-01T15:38:46;38.40;24.50
59572;DHT22;59406;45.602;11.904;2022-08-01T15:41:12;38.20;24.30
59572;DHT22;59406;45.602;11.904;2022-08-01T15:43:38;37.90;25.00
59572;DHT22;59406;45.602;11.904;2022-08-01T15:46:04;37.70;25.20
59572;DHT22;59406;45.602;11.904;2022-08-01T15:48:30;37.60;25.20
59572;DHT22;59406;45.602;11.904;2022-08-01T15:50:56;37.10;25.50
59572;DHT22;59406;45.602;11.904;2022-08-01T15:53:22;36.50;25.90
59572;DHT22;59406;45.602;11.904;2022-08-01T15:55:48;36.10;26.80
59572;DHT22;59406;45.602;11.904;2022-08-01T15:58:14;35.90;27.40
59572;DHT22;59406;45.602;11.904;2022-08-01T16:00:40;36.10;26.70
59572;DHT22;59406;45.602;11.904;2022-08-01T16:03:07;36.30;27.00
59572;DHT22;59406;45.602;11.904;2022-08-01T16:05:35;36.10;27.00
59572;DHT22;59406;45.602;11.904;2022-08-01T16:08:02;35.70;27.30